Terminal Aerodrome Forecast
Issued by NWS Wakefield, VA

Home | Current Version | Previous Version | Text Only | Print | Product List | Glossary On
Versions: 1 2 3 4 5 6 7 8 9 10 11 12 13 14 15 16 17 18
504
FTUS41 KAKQ 231726
TAFRIC
TAF
KRIC 231726Z 2318/2418 05010KT P6SM SCT020 OVC100
      TEMPO 2318/2322 5SM -RA BR SCT010 BKN020
     FM232200 07006KT 4SM -RA BR OVC015
     FM240800 04008KT 2SM -RA BR OVC008=

USA.gov is the U.S. government's official web portal to all federal, state and local government web resources and services.